sensor_id;sensor_type;location;lat;lon;timestamp;pressure;altitude;pressure_sealevel;temperature;humidity
50710;BME280;37033;49.994;21.992;2023-12-14T00:00:29;97868.69;;;1.19;100.00
50710;BME280;37033;49.994;21.992;2023-12-14T00:03:20;97873.44;;;1.17;100.00
50710;BME280;37033;49.994;21.992;2023-12-14T00:05:51;97873.61;;;1.16;100.00
50710;BME280;37033;49.994;21.992;2023-12-14T00:08:22;97878.42;;;1.16;100.00
50710;BME280;37033;49.994;21.992;2023-12-14T00:10:53;97882.59;;;1.16;100.00
50710;BME280;37033;49.994;21.992;2023-12-14T00:13:24;97886.30;;;1.15;100.00
50710;BME280;37033;49.994;21.992;2023-12-14T00:15:54;97891.21;;;1.14;100.00
50710;BME280;37033;49.994;21.992;2023-12-14T00:18:26;97896.02;;;1.14;100.00
50710;BME280;37033;49.994;21.992;2023-12-14T00:20:56;97897.15;;;1.13;100.00
50710;BME280;37033;49.994;21.992;2023-12-14T00:23:27;97896.81;;;1.13;100.00
50710;BME280;37033;49.994;21.992;2023-12-14T00:26:32;97898.69;;;1.15;100.00
50710;BME280;37033;49.994;21.992;2023-12-14T00:29:03;97902.70;;;1.13;100.00
50710;BME280;37033;49.994;21.992;2023-12-14T00:31:34;97904.80;;;1.14;100.00
50710;BME280;37033;49.994;21.992;2023-12-14T00:34:05;97907.36;;;1.13;100.00
50710;BME280;37033;49.994;21.992;2023-12-14T00:36:36;97912.05;;;1.13;100.00
50710;BME280;37033;49.994;21.992;2023-12-14T00:39:07;97913.38;;;1.12;100.00
50710;BME280;37033;49.994;21.992;2023-12-14T00:41:39;97915.81;;;1.12;100.00
50710;BME280;37033;49.994;21.992;2023-12-14T00:44:10;97915.20;;;1.11;100.00
50710;BME280;37033;49.994;21.992;2023-12-14T00:46:41;97917.96;;;1.10;100.00
50710;BME280;37033;49.994;21.992;2023-12-14T00:49:12;97918.75;;;1.08;100.00
50710;BME280;37033;49.994;21.992;2023-12-14T00:51:43;97918.73;;;1.07;100.00
50710;BME280;37033;49.994;21.992;2023-12-14T00:54:13;97918.92;;;1.07;100.00
50710;BME280;37033;49.994;21.992;2023-12-14T00:56:44;97921.15;;;1.07;100.00
50710;BME280;37033;49.994;21.992;2023-12-14T00:59:15;97921.86;;;1.07;100.00
50710;BME280;37033;49.994;21.992;2023-12-14T01:01:46;97926.48;;;1.06;100.00
50710;BME280;37033;49.994;21.992;2023-12-14T01:04:16;97930.95;;;1.05;100.00
50710;BME280;37033;49.994;21.992;2023-12-14T01:06:47;97928.74;;;1.05;100.00
50710;BME280;37033;49.994;21.992;2023-12-14T01:09:18;97931.39;;;1.05;100.00
50710;BME280;37033;49.994;21.992;2023-12-14T01:11:49;97932.98;;;1.05;100.00
50710;BME280;37033;49.994;21.992;2023-12-14T01:14:20;97931.95;;;1.05;100.00
50710;BME280;37033;49.994;21.992;2023-12-14T01:16:50;97936.73;;;1.04;100.00
50710;BME280;37033;49.994;21.992;2023-12-14T01:19:21;97935.25;;;1.04;100.00
50710;BME280;37033;49.994;21.992;2023-12-14T01:21:52;97933.89;;;1.05;100.00
50710;BME280;37033;49.994;21.992;2023-12-14T01:24:24;97935.16;;;1.05;100.00
50710;BME280;37033;49.994;21.992;2023-12-14T01:26:55;97932.61;;;1.05;100.00
50710;BME280;37033;49.994;21.992;2023-12-14T01:29:26;97935.91;;;1.04;100.00
50710;BME280;37033;49.994;21.992;2023-12-14T01:31:57;97940.23;;;1.04;100.00
50710;BME280;37033;49.994;21.992;2023-12-14T01:34:28;97938.54;;;1.05;100.00
50710;BME280;37033;49.994;21.992;2023-12-14T01:36:59;97939.58;;;1.05;100.00
50710;BME280;37033;49.994;21.992;2023-12-14T01:39:30;97943.85;;;1.05;100.00
50710;BME280;37033;49.994;21.992;2023-12-14T01:42:01;97944.17;;;1.05;100.00
50710;BME280;37033;49.994;21.992;2023-12-14T01:44:32;97943.02;;;1.06;100.00
50710;BME280;37033;49.994;21.992;2023-12-14T01:47:04;97946.52;;;1.05;100.00
50710;BME280;37033;49.994;21.992;2023-12-14T01:49:34;97950.32;;;1.05;100.00
50710;BME280;37033;49.994;21.992;2023-12-14T01:52:06;97954.52;;;1.05;100.00
50710;BME280;37033;49.994;21.992;2023-12-14T01:54:37;97957.48;;;1.06;100.00
50710;BME280;37033;49.994;21.992;2023-12-14T01:57:08;97959.98;;;1.06;100.00
50710;BME280;37033;49.994;21.992;2023-12-14T01:59:39;97966.48;;;1.07;100.00
50710;BME280;37033;49.994;21.992;2023-12-14T02:02:10;97967.84;;;1.07;100.00
50710;BME280;37033;49.994;21.992;2023-12-14T02:04:40;97970.38;;;1.06;100.00
50710;BME280;37033;49.994;21.992;2023-12-14T02:07:11;97973.77;;;1.07;100.00
50710;BME280;37033;49.994;21.992;2023-12-14T02:09:42;97970.52;;;1.07;100.00
50710;BME280;37033;49.994;21.992;2023-12-14T02:12:13;97966.80;;;1.08;100.00
50710;BME280;37033;49.994;21.992;2023-12-14T02:14:44;97968.57;;;1.08;100.00
50710;BME280;37033;49.994;21.992;2023-12-14T02:17:15;97965.23;;;1.08;100.00
50710;BME280;37033;49.994;21.992;2023-12-14T02:19:46;97967.42;;;1.06;100.00
50710;BME280;37033;49.994;21.992;2023-12-14T02:22:20;97969.21;;;1.05;100.00
50710;BME280;37033;49.994;21.992;2023-12-14T02:24:51;97973.91;;;1.05;100.00
50710;BME280;37033;49.994;21.992;2023-12-14T02:27:22;97977.28;;;1.05;100.00
50710;BME280;37033;49.994;21.992;2023-12-14T02:29:53;97978.89;;;1.05;100.00
50710;BME280;37033;49.994;21.992;2023-12-14T02:32:24;97975.30;;;1.05;100.00
50710;BME280;37033;49.994;21.992;2023-12-14T02:34:55;97972.75;;;1.05;100.00
50710;BME280;37033;49.994;21.992;2023-12-14T02:37:26;97975.39;;;1.04;100.00
50710;BME280;37033;49.994;21.992;2023-12-14T02:39:57;97974.12;;;1.04;100.00
50710;BME280;37033;49.994;21.992;2023-12-14T02:42:28;97976.05;;;1.05;100.00
50710;BME280;37033;49.994;21.992;2023-12-14T02:44:59;97973.16;;;1.05;100.00
50710;BME280;37033;49.994;21.992;2023-12-14T02:47:31;97977.48;;;1.05;100.00
50710;BME280;37033;49.994;21.992;2023-12-14T02:50:02;97977.29;;;1.03;100.00
50710;BME280;37033;49.994;21.992;2023-12-14T02:52:33;97977.59;;;1.03;100.00
50710;BME280;37033;49.994;21.992;2023-12-14T02:55:06;97980.55;;;1.02;100.00
50710;BME280;37033;49.994;21.992;2023-12-14T02:57:37;97984.38;;;1.01;100.00
50710;BME280;37033;49.994;21.992;2023-12-14T03:00:11;97987.39;;;1.00;100.00
50710;BME280;37033;49.994;21.992;2023-12-14T03:02:42;97992.71;;;0.98;100.00
50710;BME280;37033;49.994;21.992;2023-12-14T03:05:13;97991.23;;;0.97;100.00
50710;BME280;37033;49.994;21.992;2023-12-14T03:07:44;97991.08;;;0.96;100.00
50710;BME280;37033;49.994;21.992;2023-12-14T03:10:15;97991.73;;;0.95;100.00
50710;BME280;37033;49.994;21.992;2023-12-14T03:12:45;97992.85;;;0.95;100.00
50710;BME280;37033;49.994;21.992;2023-12-14T03:15:19;97994.63;;;0.94;100.00
50710;BME280;37033;49.994;21.992;2023-12-14T03:17:50;97990.24;;;0.92;100.00
50710;BME280;37033;49.994;21.992;2023-12-14T03:20:20;97989.17;;;0.91;100.00
50710;BME280;37033;49.994;21.992;2023-12-14T03:22:52;97985.88;;;0.90;100.00
50710;BME280;37033;49.994;21.992;2023-12-14T03:25:23;97989.42;;;0.89;100.00
50710;BME280;37033;49.994;21.992;2023-12-14T03:27:54;97991.73;;;0.89;100.00
50710;BME280;37033;49.994;21.992;2023-12-14T03:30:24;97992.56;;;0.88;100.00
50710;BME280;37033;49.994;21.992;2023-12-14T03:32:56;97988.98;;;0.88;100.00
50710;BME280;37033;49.994;21.992;2023-12-14T03:35:27;97986.59;;;0.87;100.00
50710;BME280;37033;49.994;21.992;2023-12-14T03:37:57;97989.23;;;0.88;100.00
50710;BME280;37033;49.994;21.992;2023-12-14T03:40:28;97990.67;;;0.88;100.00
50710;BME280;37033;49.994;21.992;2023-12-14T03:42:59;98003.67;;;0.88;100.00
50710;BME280;37033;49.994;21.992;2023-12-14T03:45:30;98012.02;;;0.88;100.00
50710;BME280;37033;49.994;21.992;2023-12-14T03:48:01;98009.73;;;0.88;100.00
50710;BME280;37033;49.994;21.992;2023-12-14T03:50:31;98014.33;;;0.88;100.00
50710;BME280;37033;49.994;21.992;2023-12-14T03:53:03;98015.52;;;0.88;100.00
50710;BME280;37033;49.994;21.992;2023-12-14T03:55:34;98017.50;;;0.87;100.00
50710;BME280;37033;49.994;21.992;2023-12-14T03:58:04;98022.52;;;0.87;100.00
50710;BME280;37033;49.994;21.992;2023-12-14T04:00:35;98029.04;;;0.86;100.00
50710;BME280;37033;49.994;21.992;2023-12-14T04:03:06;98037.39;;;0.86;100.00
50710;BME280;37033;49.994;21.992;2023-12-14T04:05:38;98045.46;;;0.86;100.00
50710;BME280;37033;49.994;21.992;2023-12-14T04:08:09;98049.08;;;0.86;100.00
50710;BME280;37033;49.994;21.992;2023-12-14T04:10:39;98048.53;;;0.87;100.00
50710;BME280;37033;49.994;21.992;2023-12-14T04:13:10;98050.77;;;0.86;100.00
50710;BME280;37033;49.994;21.992;2023-12-14T04:15:41;98053.89;;;0.86;100.00
50710;BME280;37033;49.994;21.992;2023-12-14T04:18:12;98059.53;;;0.86;100.00
50710;BME280;37033;49.994;21.992;2023-12-14T04:20:43;98063.90;;;0.86;100.00
50710;BME280;37033;49.994;21.992;2023-12-14T04:23:14;98060.27;;;0.85;100.00
50710;BME280;37033;49.994;21.992;2023-12-14T04:25:44;98060.65;;;0.86;100.00
50710;BME280;37033;49.994;21.992;2023-12-14T04:28:15;98059.17;;;0.85;100.00
50710;BME280;37033;49.994;21.992;2023-12-14T04:30:46;98062.61;;;0.86;100.00
50710;BME280;37033;49.994;21.992;2023-12-14T04:33:17;98069.21;;;0.85;100.00
50710;BME280;37033;49.994;21.992;2023-12-14T04:35:48;98076.16;;;0.85;100.00
50710;BME280;37033;49.994;21.992;2023-12-14T04:38:18;98078.52;;;0.85;100.00
50710;BME280;37033;49.994;21.992;2023-12-14T04:40:49;98083.48;;;0.83;100.00
50710;BME280;37033;49.994;21.992;2023-12-14T04:43:20;98089.20;;;0.83;100.00
50710;BME280;37033;49.994;21.992;2023-12-14T04:45:51;98091.82;;;0.82;100.00
50710;BME280;37033;49.994;21.992;2023-12-14T04:48:22;98092.55;;;0.82;100.00
50710;BME280;37033;49.994;21.992;2023-12-14T04:50:53;98104.08;;;0.82;100.00
50710;BME280;37033;49.994;21.992;2023-12-14T04:53:24;98108.92;;;0.83;100.00
50710;BME280;37033;49.994;21.992;2023-12-14T04:55:55;98106.88;;;0.83;100.00
50710;BME280;37033;49.994;21.992;2023-12-14T04:58:25;98115.64;;;0.83;100.00
50710;BME280;37033;49.994;21.992;2023-12-14T05:00:56;98117.23;;;0.83;100.00
50710;BME280;37033;49.994;21.992;2023-12-14T05:03:27;98125.18;;;0.84;100.00
50710;BME280;37033;49.994;21.992;2023-12-14T05:05:58;98126.50;;;0.83;100.00
50710;BME280;37033;49.994;21.992;2023-12-14T05:08:29;98128.81;;;0.82;100.00
50710;BME280;37033;49.994;21.992;2023-12-14T05:11:00;98131.90;;;0.81;100.00
50710;BME280;37033;49.994;21.992;2023-12-14T05:13:31;98131.70;;;0.82;100.00
50710;BME280;37033;49.994;21.992;2023-12-14T05:16:02;98136.21;;;0.81;100.00
50710;BME280;37033;49.994;21.992;2023-12-14T05:18:33;98140.04;;;0.80;100.00
50710;BME280;37033;49.994;21.992;2023-12-14T05:21:05;98145.89;;;0.82;100.00
50710;BME280;37033;49.994;21.992;2023-12-14T05:23:36;98149.55;;;0.81;100.00
50710;BME280;37033;49.994;21.992;2023-12-14T05:26:07;98155.98;;;0.83;100.00
50710;BME280;37033;49.994;21.992;2023-12-14T05:28:38;98158.56;;;0.82;100.00
50710;BME280;37033;49.994;21.992;2023-12-14T05:31:09;98161.20;;;0.82;100.00
50710;BME280;37033;49.994;21.992;2023-12-14T05:33:40;98164.09;;;0.82;100.00
50710;BME280;37033;49.994;21.992;2023-12-14T05:36:11;98167.66;;;0.82;100.00
50710;BME280;37033;49.994;21.992;2023-12-14T05:38:43;98170.88;;;0.82;100.00
50710;BME280;37033;49.994;21.992;2023-12-14T05:41:14;98179.02;;;0.82;100.00
50710;BME280;37033;49.994;21.992;2023-12-14T05:43:45;98182.89;;;0.82;100.00
50710;BME280;37033;49.994;21.992;2023-12-14T05:46:23;98185.11;;;0.81;100.00
50710;BME280;37033;49.994;21.992;2023-12-14T05:48:54;98187.83;;;0.80;100.00
50710;BME280;37033;49.994;21.992;2023-12-14T05:51:32;98196.83;;;0.80;100.00
50710;BME280;37033;49.994;21.992;2023-12-14T05:54:03;98205.67;;;0.79;100.00
50710;BME280;37033;49.994;21.992;2023-12-14T05:56:34;98208.40;;;0.79;100.00
50710;BME280;37033;49.994;21.992;2023-12-14T05:59:05;98217.20;;;0.78;100.00
50710;BME280;37033;49.994;21.992;2023-12-14T06:01:36;98221.04;;;0.77;100.00
50710;BME280;37033;49.994;21.992;2023-12-14T06:04:07;98220.09;;;0.77;100.00
50710;BME280;37033;49.994;21.992;2023-12-14T06:06:39;98224.91;;;0.77;100.00
50710;BME280;37033;49.994;21.992;2023-12-14T06:09:10;98229.39;;;0.76;100.00
50710;BME280;37033;49.994;21.992;2023-12-14T06:11:41;98229.90;;;0.76;100.00
50710;BME280;37033;49.994;21.992;2023-12-14T06:14:14;98231.82;;;0.77;100.00
50710;BME280;37033;49.994;21.992;2023-12-14T06:16:45;98237.66;;;0.77;100.00
50710;BME280;37033;49.994;21.992;2023-12-14T06:19:16;98236.73;;;0.78;100.00
50710;BME280;37033;49.994;21.992;2023-12-14T06:21:47;98235.36;;;0.76;100.00
50710;BME280;37033;49.994;21.992;2023-12-14T06:24:18;98240.14;;;0.76;100.00
50710;BME280;37033;49.994;21.992;2023-12-14T06:26:50;98245.93;;;0.75;100.00
50710;BME280;37033;49.994;21.992;2023-12-14T06:29:21;98249.52;;;0.75;100.00
50710;BME280;37033;49.994;21.992;2023-12-14T06:31:52;98251.87;;;0.75;100.00
50710;BME280;37033;49.994;21.992;2023-12-14T06:34:23;98254.91;;;0.75;100.00
50710;BME280;37033;49.994;21.992;2023-12-14T06:36:54;98259.96;;;0.76;100.00
50710;BME280;37033;49.994;21.992;2023-12-14T06:39:24;98264.91;;;0.76;100.00
50710;BME280;37033;49.994;21.992;2023-12-14T06:41:55;98265.64;;;0.76;100.00
50710;BME280;37033;49.994;21.992;2023-12-14T06:44:27;98275.25;;;0.76;100.00
50710;BME280;37033;49.994;21.992;2023-12-14T06:46:59;98281.73;;;0.77;100.00
50710;BME280;37033;49.994;21.992;2023-12-14T06:49:30;98287.73;;;0.77;100.00
50710;BME280;37033;49.994;21.992;2023-12-14T06:52:01;98290.09;;;0.78;100.00
50710;BME280;37033;49.994;21.992;2023-12-14T06:54:32;98295.64;;;0.80;100.00
50710;BME280;37033;49.994;21.992;2023-12-14T06:57:04;98298.61;;;0.82;100.00
50710;BME280;37033;49.994;21.992;2023-12-14T06:59:34;98294.88;;;0.82;100.00
50710;BME280;37033;49.994;21.992;2023-12-14T07:02:06;98296.15;;;0.83;100.00
50710;BME280;37033;49.994;21.992;2023-12-14T07:04:36;98292.03;;;0.83;100.00
50710;BME280;37033;49.994;21.992;2023-12-14T07:07:07;98292.30;;;0.83;100.00
50710;BME280;37033;49.994;21.992;2023-12-14T07:09:38;98296.77;;;0.85;100.00
50710;BME280;37033;49.994;21.992;2023-12-14T07:12:09;98298.74;;;0.86;100.00
50710;BME280;37033;49.994;21.992;2023-12-14T07:14:41;98303.60;;;0.87;100.00
50710;BME280;37033;49.994;21.992;2023-12-14T07:17:11;98309.02;;;0.88;100.00
50710;BME280;37033;49.994;21.992;2023-12-14T07:19:42;98307.84;;;0.89;100.00
50710;BME280;37033;49.994;21.992;2023-12-14T07:22:13;98319.86;;;0.89;100.00
50710;BME280;37033;49.994;21.992;2023-12-14T07:24:44;98321.30;;;0.91;100.00
50710;BME280;37033;49.994;21.992;2023-12-14T07:27:15;98327.08;;;0.91;100.00
50710;BME280;37033;49.994;21.992;2023-12-14T07:29:46;98325.70;;;0.92;100.00
50710;BME280;37033;49.994;21.992;2023-12-14T07:32:16;98333.65;;;0.94;100.00
50710;BME280;37033;49.994;21.992;2023-12-14T07:34:47;98333.89;;;0.95;100.00
50710;BME280;37033;49.994;21.992;2023-12-14T07:37:18;98338.83;;;0.97;100.00
50710;BME280;37033;49.994;21.992;2023-12-14T07:39:49;98341.74;;;0.97;100.00
50710;BME280;37033;49.994;21.992;2023-12-14T07:42:20;98348.00;;;0.99;100.00
50710;BME280;37033;49.994;21.992;2023-12-14T07:44:51;98351.02;;;0.99;100.00
50710;BME280;37033;49.994;21.992;2023-12-14T07:47:23;98354.52;;;1.01;100.00
50710;BME280;37033;49.994;21.992;2023-12-14T07:49:54;98356.21;;;1.02;100.00
50710;BME280;37033;49.994;21.992;2023-12-14T07:52:25;98358.92;;;1.03;100.00
50710;BME280;37033;49.994;21.992;2023-12-14T07:54:56;98365.52;;;1.04;100.00
50710;BME280;37033;49.994;21.992;2023-12-14T07:57:27;98369.51;;;1.05;100.00
50710;BME280;37033;49.994;21.992;2023-12-14T07:59:58;98374.58;;;1.07;100.00
50710;BME280;37033;49.994;21.992;2023-12-14T08:02:29;98377.88;;;1.08;100.00
50710;BME280;37033;49.994;21.992;2023-12-14T08:05:00;98383.72;;;1.08;100.00
50710;BME280;37033;49.994;21.992;2023-12-14T08:07:31;98386.26;;;1.09;100.00
50710;BME280;37033;49.994;21.992;2023-12-14T08:10:03;98389.15;;;1.09;100.00
50710;BME280;37033;49.994;21.992;2023-12-14T08:12:34;98397.02;;;1.09;100.00
50710;BME280;37033;49.994;21.992;2023-12-14T08:15:06;98400.31;;;1.10;100.00
50710;BME280;37033;49.994;21.992;2023-12-14T08:17:37;98405.91;;;1.10;100.00
50710;BME280;37033;49.994;21.992;2023-12-14T08:20:10;98410.29;;;1.11;100.00
50710;BME280;37033;49.994;21.992;2023-12-14T08:22:42;98409.79;;;1.12;100.00
50710;BME280;37033;49.994;21.992;2023-12-14T08:25:15;98413.45;;;1.13;100.00
50710;BME280;37033;49.994;21.992;2023-12-14T08:27:47;98419.14;;;1.12;100.00
50710;BME280;37033;49.994;21.992;2023-12-14T08:30:18;98417.73;;;1.11;100.00
50710;BME280;37033;49.994;21.992;2023-12-14T08:32:49;98416.63;;;1.12;100.00
50710;BME280;37033;49.994;21.992;2023-12-14T08:35:21;98423.38;;;1.13;100.00
50710;BME280;37033;49.994;21.992;2023-12-14T08:37:52;98431.08;;;1.14;100.00
50710;BME280;37033;49.994;21.992;2023-12-14T08:40:23;98435.64;;;1.16;100.00
50710;BME280;37033;49.994;21.992;2023-12-14T08:42:53;98436.71;;;1.16;100.00
50710;BME280;37033;49.994;21.992;2023-12-14T08:45:24;98441.82;;;1.15;100.00
50710;BME280;37033;49.994;21.992;2023-12-14T08:47:56;98449.94;;;1.13;100.00
50710;BME280;37033;49.994;21.992;2023-12-14T08:50:27;98452.11;;;1.13;100.00
50710;BME280;37033;49.994;21.992;2023-12-14T08:52:58;98451.14;;;1.14;100.00
50710;BME280;37033;49.994;21.992;2023-12-14T08:55:29;98458.95;;;1.17;100.00
50710;BME280;37033;49.994;21.992;2023-12-14T08:58:01;98460.93;;;1.21;100.00
50710;BME280;37033;49.994;21.992;2023-12-14T09:00:32;98464.64;;;1.20;100.00
50710;BME280;37033;49.994;21.992;2023-12-14T09:03:03;98470.82;;;1.19;100.00
50710;BME280;37033;49.994;21.992;2023-12-14T09:05:34;98474.60;;;1.17;100.00
50710;BME280;37033;49.994;21.992;2023-12-14T09:08:06;98474.89;;;1.16;100.00
50710;BME280;37033;49.994;21.992;2023-12-14T09:10:37;98482.98;;;1.17;100.00
50710;BME280;37033;49.994;21.992;2023-12-14T09:13:09;98488.23;;;1.18;100.00
50710;BME280;37033;49.994;21.992;2023-12-14T09:15:40;98492.80;;;1.18;100.00
50710;BME280;37033;49.994;21.992;2023-12-14T09:18:11;98497.54;;;1.19;100.00
50710;BME280;37033;49.994;21.992;2023-12-14T09:20:42;98498.49;;;1.19;100.00
50710;BME280;37033;49.994;21.992;2023-12-14T09:23:13;98497.13;;;1.18;100.00
50710;BME280;37033;49.994;21.992;2023-12-14T09:25:44;98503.11;;;1.19;100.00
50710;BME280;37033;49.994;21.992;2023-12-14T09:28:15;98502.23;;;1.18;100.00
50710;BME280;37033;49.994;21.992;2023-12-14T09:30:46;98500.88;;;1.18;100.00
50710;BME280;37033;49.994;21.992;2023-12-14T09:33:17;98502.56;;;1.17;100.00
50710;BME280;37033;49.994;21.992;2023-12-14T09:35:49;98505.24;;;1.17;100.00
50710;BME280;37033;49.994;21.992;2023-12-14T09:38:20;98508.36;;;1.17;100.00
50710;BME280;37033;49.994;21.992;2023-12-14T09:40:51;98509.03;;;1.17;100.00
50710;BME280;37033;49.994;21.992;2023-12-14T09:43:22;98507.59;;;1.17;100.00
50710;BME280;37033;49.994;21.992;2023-12-14T09:45:55;98514.47;;;1.19;100.00
50710;BME280;37033;49.994;21.992;2023-12-14T09:48:27;98517.65;;;1.20;100.00
50710;BME280;37033;49.994;21.992;2023-12-14T09:50:59;98519.33;;;1.20;100.00
50710;BME280;37033;49.994;21.992;2023-12-14T09:53:30;98521.35;;;1.22;100.00
50710;BME280;37033;49.994;21.992;2023-12-14T09:56:01;98517.20;;;1.22;100.00
50710;BME280;37033;49.994;21.992;2023-12-14T09:58:34;98523.09;;;1.23;100.00
50710;BME280;37033;49.994;21.992;2023-12-14T10:01:22;98525.28;;;1.25;100.00
50710;BME280;37033;49.994;21.992;2023-12-14T10:04:10;98525.82;;;1.27;100.00
50710;BME280;37033;49.994;21.992;2023-12-14T10:06:42;98531.46;;;1.27;100.00
50710;BME280;37033;49.994;21.992;2023-12-14T10:09:13;98533.35;;;1.26;100.00
50710;BME280;37033;49.994;21.992;2023-12-14T10:11:46;98532.28;;;1.26;100.00
50710;BME280;37033;49.994;21.992;2023-12-14T10:14:26;98535.74;;;1.26;100.00
50710;BME280;37033;49.994;21.992;2023-12-14T10:16:57;98534.67;;;1.27;100.00
50710;BME280;37033;49.994;21.992;2023-12-14T10:19:28;98534.84;;;1.27;100.00
50710;BME280;37033;49.994;21.992;2023-12-14T10:21:59;98535.84;;;1.28;100.00
50710;BME280;37033;49.994;21.992;2023-12-14T10:24:34;98533.61;;;1.30;100.00
50710;BME280;37033;49.994;21.992;2023-12-14T10:27:08;98537.60;;;1.30;100.00
50710;BME280;37033;49.994;21.992;2023-12-14T10:29:39;98537.95;;;1.32;100.00
50710;BME280;37033;49.994;21.992;2023-12-14T10:32:11;98536.42;;;1.33;100.00
50710;BME280;37033;49.994;21.992;2023-12-14T10:34:42;98538.81;;;1.35;100.00
50710;BME280;37033;49.994;21.992;2023-12-14T10:37:13;98538.08;;;1.36;100.00
50710;BME280;37033;49.994;21.992;2023-12-14T10:39:45;98539.77;;;1.39;100.00
50710;BME280;37033;49.994;21.992;2023-12-14T10:42:19;98541.95;;;1.40;100.00
50710;BME280;37033;49.994;21.992;2023-12-14T10:44:53;98548.83;;;1.41;100.00
50710;BME280;37033;49.994;21.992;2023-12-14T10:47:24;98551.31;;;1.42;100.00
50710;BME280;37033;49.994;21.992;2023-12-14T10:49:55;98556.21;;;1.43;100.00
50710;BME280;37033;49.994;21.992;2023-12-14T10:52:28;98554.89;;;1.43;100.00
50710;BME280;37033;49.994;21.992;2023-12-14T10:55:07;98559.73;;;1.46;100.00
50710;BME280;37033;49.994;21.992;2023-12-14T10:57:40;98563.64;;;1.47;100.00
50710;BME280;37033;49.994;21.992;2023-12-14T11:00:12;98563.05;;;1.49;100.00
50710;BME280;37033;49.994;21.992;2023-12-14T11:02:47;98565.79;;;1.50;100.00
50710;BME280;37033;49.994;21.992;2023-12-14T11:05:18;98568.96;;;1.52;100.00
50710;BME280;37033;49.994;21.992;2023-12-14T11:07:59;98569.00;;;1.54;100.00
50710;BME280;37033;49.994;21.992;2023-12-14T11:10:40;98572.67;;;1.54;100.00
50710;BME280;37033;49.994;21.992;2023-12-14T11:13:12;98574.27;;;1.56;100.00
50710;BME280;37033;49.994;21.992;2023-12-14T11:15:47;98573.09;;;1.58;100.00
50710;BME280;37033;49.994;21.992;2023-12-14T11:18:27;98573.02;;;1.60;100.00
50710;BME280;37033;49.994;21.992;2023-12-14T11:21:00;98575.21;;;1.64;100.00
50710;BME280;37033;49.994;21.992;2023-12-14T11:23:33;98575.20;;;1.66;100.00
50710;BME280;37033;49.994;21.992;2023-12-14T11:26:06;98578.50;;;1.70;100.00
50710;BME280;37033;49.994;21.992;2023-12-14T11:28:40;98582.81;;;1.72;100.00
50710;BME280;37033;49.994;21.992;2023-12-14T11:31:13;98586.52;;;1.75;100.00
50710;BME280;37033;49.994;21.992;2023-12-14T11:33:44;98587.39;;;1.78;100.00
50710;BME280;37033;49.994;21.992;2023-12-14T11:36:17;98589.00;;;1.82;100.00
50710;BME280;37033;49.994;21.992;2023-12-14T11:38:49;98584.55;;;1.88;100.00
50710;BME280;37033;49.994;21.992;2023-12-14T11:41:21;98586.52;;;1.92;100.00
50710;BME280;37033;49.994;21.992;2023-12-14T11:43:54;98588.06;;;1.95;100.00
50710;BME280;37033;49.994;21.992;2023-12-14T11:46:25;98590.95;;;1.96;100.00
50710;BME280;37033;49.994;21.992;2023-12-14T11:48:57;98593.09;;;1.97;100.00
50710;BME280;37033;49.994;21.992;2023-12-14T11:51:28;98595.02;;;1.97;100.00
50710;BME280;37033;49.994;21.992;2023-12-14T11:54:01;98598.61;;;1.96;100.00
50710;BME280;37033;49.994;21.992;2023-12-14T11:56:35;98598.86;;;1.97;100.00
50710;BME280;37033;49.994;21.992;2023-12-14T11:59:06;98604.67;;;1.99;100.00
50710;BME280;37033;49.994;21.992;2023-12-14T12:01:48;98607.27;;;1.98;100.00
50710;BME280;37033;49.994;21.992;2023-12-14T12:04:24;98609.87;;;1.93;100.00
50710;BME280;37033;49.994;21.992;2023-12-14T12:07:03;98617.66;;;1.91;100.00
50710;BME280;37033;49.994;21.992;2023-12-14T12:09:37;98621.77;;;1.88;100.00
50710;BME280;37033;49.994;21.992;2023-12-14T12:12:09;98621.98;;;1.87;100.00
50710;BME280;37033;49.994;21.992;2023-12-14T12:14:41;98626.02;;;1.84;100.00
50710;BME280;37033;49.994;21.992;2023-12-14T12:17:12;98627.60;;;1.78;100.00
50710;BME280;37033;49.994;21.992;2023-12-14T12:19:45;98628.55;;;1.72;100.00
50710;BME280;37033;49.994;21.992;2023-12-14T12:22:16;98635.77;;;1.69;100.00
50710;BME280;37033;49.994;21.992;2023-12-14T12:24:47;98640.16;;;1.67;100.00
50710;BME280;37033;49.994;21.992;2023-12-14T12:27:17;98639.51;;;1.65;100.00
50710;BME280;37033;49.994;21.992;2023-12-14T12:29:48;98650.71;;;1.64;100.00
50710;BME280;37033;49.994;21.992;2023-12-14T12:32:23;98654.50;;;1.62;100.00
50710;BME280;37033;49.994;21.992;2023-12-14T12:34:53;98660.52;;;1.62;100.00
50710;BME280;37033;49.994;21.992;2023-12-14T12:37:24;98665.48;;;1.60;100.00
50710;BME280;37033;49.994;21.992;2023-12-14T12:39:55;98669.90;;;1.58;100.00
50710;BME280;37033;49.994;21.992;2023-12-14T12:42:26;98669.44;;;1.57;100.00
50710;BME280;37033;49.994;21.992;2023-12-14T12:44:58;98676.98;;;1.57;100.00
50710;BME280;37033;49.994;21.992;2023-12-14T12:47:30;98676.03;;;1.57;100.00
50710;BME280;37033;49.994;21.992;2023-12-14T12:50:01;98677.06;;;1.58;100.00
50710;BME280;37033;49.994;21.992;2023-12-14T12:52:32;98680.52;;;1.57;100.00
50710;BME280;37033;49.994;21.992;2023-12-14T12:55:03;98675.46;;;1.58;100.00
50710;BME280;37033;49.994;21.992;2023-12-14T12:57:34;98678.39;;;1.57;100.00
50710;BME280;37033;49.994;21.992;2023-12-14T13:00:06;98680.36;;;1.57;100.00
50710;BME280;37033;49.994;21.992;2023-12-14T13:02:40;98682.54;;;1.55;100.00
50710;BME280;37033;49.994;21.992;2023-12-14T13:05:12;98685.21;;;1.55;100.00
50710;BME280;37033;49.994;21.992;2023-12-14T13:07:45;98692.39;;;1.55;100.00
50710;BME280;37033;49.994;21.992;2023-12-14T13:10:16;98694.69;;;1.54;100.00
50710;BME280;37033;49.994;21.992;2023-12-14T13:12:48;98701.33;;;1.52;100.00